sensor_id;sensor_type;location;lat;lon;timestamp;temperature;humidity
64143;DHT22;50437;51.970;5.904;2023-05-10T00:01:42;13.50;99.90
64143;DHT22;50437;51.970;5.904;2023-05-10T00:04:10;13.50;99.90
64143;DHT22;50437;51.970;5.904;2023-05-10T00:06:37;13.50;99.90
64143;DHT22;50437;51.970;5.904;2023-05-10T00:09:04;13.50;99.90
64143;DHT22;50437;51.970;5.904;2023-05-10T00:11:30;13.40;99.90
64143;DHT22;50437;51.970;5.904;2023-05-10T00:13:57;13.40;99.90
64143;DHT22;50437;51.970;5.904;2023-05-10T00:16:23;13.50;99.90
64143;DHT22;50437;51.970;5.904;2023-05-10T00:18:50;13.60;99.90
64143;DHT22;50437;51.970;5.904;2023-05-10T00:21:16;13.50;99.90
64143;DHT22;50437;51.970;5.904;2023-05-10T00:23:43;13.60;99.90
64143;DHT22;50437;51.970;5.904;2023-05-10T00:26:10;13.50;99.90
64143;DHT22;50437;51.970;5.904;2023-05-10T00:31:11;13.50;99.90
64143;DHT22;50437;51.970;5.904;2023-05-10T00:33:38;13.60;99.90
64143;DHT22;50437;51.970;5.904;2023-05-10T00:36:09;13.50;99.90
64143;DHT22;50437;51.970;5.904;2023-05-10T00:38:36;13.60;99.90
64143;DHT22;50437;51.970;5.904;2023-05-10T00:41:03;13.60;99.90
64143;DHT22;50437;51.970;5.904;2023-05-10T00:43:33;13.50;99.90
64143;DHT22;50437;51.970;5.904;2023-05-10T00:45:59;13.50;99.90
64143;DHT22;50437;51.970;5.904;2023-05-10T00:48:25;13.50;99.90
64143;DHT22;50437;51.970;5.904;2023-05-10T00:50:51;13.50;99.90
64143;DHT22;50437;51.970;5.904;2023-05-10T00:53:17;13.50;99.90
64143;DHT22;50437;51.970;5.904;2023-05-10T00:55:44;13.40;99.90
64143;DHT22;50437;51.970;5.904;2023-05-10T00:58:11;13.40;99.90
64143;DHT22;50437;51.970;5.904;2023-05-10T01:00:38;13.50;99.90
64143;DHT22;50437;51.970;5.904;2023-05-10T01:03:07;13.50;99.90
64143;DHT22;50437;51.970;5.904;2023-05-10T01:05:35;13.50;99.90
64143;DHT22;50437;51.970;5.904;2023-05-10T01:08:03;13.60;99.90
64143;DHT22;50437;51.970;5.904;2023-05-10T01:10:30;13.50;99.90
64143;DHT22;50437;51.970;5.904;2023-05-10T01:12:58;13.50;99.90
64143;DHT22;50437;51.970;5.904;2023-05-10T01:15:25;13.50;99.90
64143;DHT22;50437;51.970;5.904;2023-05-10T01:17:53;13.60;99.90
64143;DHT22;50437;51.970;5.904;2023-05-10T01:20:19;13.50;99.90
64143;DHT22;50437;51.970;5.904;2023-05-10T01:25:42;13.60;99.90
64143;DHT22;50437;51.970;5.904;2023-05-10T01:31:08;13.60;99.90
64143;DHT22;50437;51.970;5.904;2023-05-10T01:33:56;13.50;99.90
64143;DHT22;50437;51.970;5.904;2023-05-10T01:41:25;13.50;99.90
64143;DHT22;50437;51.970;5.904;2023-05-10T01:43:57;13.50;99.90
64143;DHT22;50437;51.970;5.904;2023-05-10T01:46:28;13.50;99.90
64143;DHT22;50437;51.970;5.904;2023-05-10T01:48:57;13.50;99.90
64143;DHT22;50437;51.970;5.904;2023-05-10T01:51:25;13.50;99.90
64143;DHT22;50437;51.970;5.904;2023-05-10T01:53:54;13.60;99.90
64143;DHT22;50437;51.970;5.904;2023-05-10T01:56:24;13.60;99.90
64143;DHT22;50437;51.970;5.904;2023-05-10T01:58:52;13.50;99.90
64143;DHT22;50437;51.970;5.904;2023-05-10T02:01:20;13.60;99.90
64143;DHT22;50437;51.970;5.904;2023-05-10T02:03:49;13.60;99.90
64143;DHT22;50437;51.970;5.904;2023-05-10T02:06:17;13.50;99.90
64143;DHT22;50437;51.970;5.904;2023-05-10T02:08:48;13.50;99.90
64143;DHT22;50437;51.970;5.904;2023-05-10T02:11:15;13.40;99.90
64143;DHT22;50437;51.970;5.904;2023-05-10T02:13:44;13.50;99.90
64143;DHT22;50437;51.970;5.904;2023-05-10T02:16:11;13.50;99.90
64143;DHT22;50437;51.970;5.904;2023-05-10T02:18:40;13.50;99.90
64143;DHT22;50437;51.970;5.904;2023-05-10T02:21:08;13.50;99.90
64143;DHT22;50437;51.970;5.904;2023-05-10T02:23:34;13.50;99.90
64143;DHT22;50437;51.970;5.904;2023-05-10T02:26:01;13.50;99.90
64143;DHT22;50437;51.970;5.904;2023-05-10T02:28:29;13.40;99.90
64143;DHT22;50437;51.970;5.904;2023-05-10T02:30:56;13.30;99.90
64143;DHT22;50437;51.970;5.904;2023-05-10T02:33:26;13.40;99.90
64143;DHT22;50437;51.970;5.904;2023-05-10T02:35:53;13.40;99.90
64143;DHT22;50437;51.970;5.904;2023-05-10T02:38:20;13.40;99.90
64143;DHT22;50437;51.970;5.904;2023-05-10T02:40:48;13.40;99.90
64143;DHT22;50437;51.970;5.904;2023-05-10T02:43:16;13.40;99.90
64143;DHT22;50437;51.970;5.904;2023-05-10T02:45:43;13.50;99.90
64143;DHT22;50437;51.970;5.904;2023-05-10T02:48:09;13.50;99.90
64143;DHT22;50437;51.970;5.904;2023-05-10T02:50:35;13.40;99.90
64143;DHT22;50437;51.970;5.904;2023-05-10T02:53:06;13.40;99.90
64143;DHT22;50437;51.970;5.904;2023-05-10T02:55:36;13.30;99.90
64143;DHT22;50437;51.970;5.904;2023-05-10T02:58:03;13.30;99.90
64143;DHT22;50437;51.970;5.904;2023-05-10T03:00:30;13.20;99.90
64143;DHT22;50437;51.970;5.904;2023-05-10T03:02:57;13.20;99.90
64143;DHT22;50437;51.970;5.904;2023-05-10T03:05:25;13.20;99.90
64143;DHT22;50437;51.970;5.904;2023-05-10T03:07:55;13.30;99.90
64143;DHT22;50437;51.970;5.904;2023-05-10T03:10:27;13.30;99.90
64143;DHT22;50437;51.970;5.904;2023-05-10T03:15:56;13.20;99.90
64143;DHT22;50437;51.970;5.904;2023-05-10T03:18:37;13.20;99.90
64143;DHT22;50437;51.970;5.904;2023-05-10T03:21:07;13.20;99.90
64143;DHT22;50437;51.970;5.904;2023-05-10T03:23:35;13.30;99.90
64143;DHT22;50437;51.970;5.904;2023-05-10T03:26:02;13.30;99.90
64143;DHT22;50437;51.970;5.904;2023-05-10T03:28:32;13.30;99.90
64143;DHT22;50437;51.970;5.904;2023-05-10T03:31:03;13.20;99.90
64143;DHT22;50437;51.970;5.904;2023-05-10T03:33:33;13.20;99.90
64143;DHT22;50437;51.970;5.904;2023-05-10T03:36:02;13.20;99.90
64143;DHT22;50437;51.970;5.904;2023-05-10T03:38:28;13.10;99.90
64143;DHT22;50437;51.970;5.904;2023-05-10T03:40:54;13.10;99.90
64143;DHT22;50437;51.970;5.904;2023-05-10T03:43:22;13.10;99.90
64143;DHT22;50437;51.970;5.904;2023-05-10T03:45:48;13.10;99.90
64143;DHT22;50437;51.970;5.904;2023-05-10T03:48:14;13.00;99.90
64143;DHT22;50437;51.970;5.904;2023-05-10T03:50:41;13.00;99.90
64143;DHT22;50437;51.970;5.904;2023-05-10T03:53:08;13.00;99.90
64143;DHT22;50437;51.970;5.904;2023-05-10T03:55:34;12.90;99.90
64143;DHT22;50437;51.970;5.904;2023-05-10T03:58:02;13.00;99.90
64143;DHT22;50437;51.970;5.904;2023-05-10T04:00:28;13.00;99.90
64143;DHT22;50437;51.970;5.904;2023-05-10T04:02:55;13.00;99.90
64143;DHT22;50437;51.970;5.904;2023-05-10T04:05:24;13.00;99.90
64143;DHT22;50437;51.970;5.904;2023-05-10T04:07:53;13.00;99.90
64143;DHT22;50437;51.970;5.904;2023-05-10T04:10:19;13.00;99.90
64143;DHT22;50437;51.970;5.904;2023-05-10T04:12:46;13.00;99.90
64143;DHT22;50437;51.970;5.904;2023-05-10T04:15:12;13.00;99.90
64143;DHT22;50437;51.970;5.904;2023-05-10T04:17:38;13.00;99.90
64143;DHT22;50437;51.970;5.904;2023-05-10T04:20:04;13.10;99.90
64143;DHT22;50437;51.970;5.904;2023-05-10T04:22:49;13.10;99.90
64143;DHT22;50437;51.970;5.904;2023-05-10T04:25:17;13.00;99.90
64143;DHT22;50437;51.970;5.904;2023-05-10T04:27:43;13.00;99.90
64143;DHT22;50437;51.970;5.904;2023-05-10T04:30:09;13.00;99.90
64143;DHT22;50437;51.970;5.904;2023-05-10T04:32:35;13.00;99.90
64143;DHT22;50437;51.970;5.904;2023-05-10T04:35:01;12.90;99.90
64143;DHT22;50437;51.970;5.904;2023-05-10T04:37:30;12.90;99.90
64143;DHT22;50437;51.970;5.904;2023-05-10T04:39:56;13.00;99.90
64143;DHT22;50437;51.970;5.904;2023-05-10T04:42:23;13.00;99.90
64143;DHT22;50437;51.970;5.904;2023-05-10T04:44:50;12.90;99.90
64143;DHT22;50437;51.970;5.904;2023-05-10T04:47:38;12.90;99.90
64143;DHT22;50437;51.970;5.904;2023-05-10T04:50:06;12.90;99.90
64143;DHT22;50437;51.970;5.904;2023-05-10T04:52:34;12.90;99.90
64143;DHT22;50437;51.970;5.904;2023-05-10T04:55:00;12.80;99.90
64143;DHT22;50437;51.970;5.904;2023-05-10T04:57:26;12.90;99.90
64143;DHT22;50437;51.970;5.904;2023-05-10T04:59:53;12.90;99.90
64143;DHT22;50437;51.970;5.904;2023-05-10T05:02:20;12.90;99.90
64143;DHT22;50437;51.970;5.904;2023-05-10T05:04:46;12.90;99.90
64143;DHT22;50437;51.970;5.904;2023-05-10T05:07:12;13.00;99.90
64143;DHT22;50437;51.970;5.904;2023-05-10T05:09:38;13.00;99.90
64143;DHT22;50437;51.970;5.904;2023-05-10T05:12:05;13.10;99.90
64143;DHT22;50437;51.970;5.904;2023-05-10T05:14:31;13.10;99.90
64143;DHT22;50437;51.970;5.904;2023-05-10T05:16:58;13.10;99.90
64143;DHT22;50437;51.970;5.904;2023-05-10T05:19:33;13.20;99.90
64143;DHT22;50437;51.970;5.904;2023-05-10T05:22:01;13.20;99.90
64143;DHT22;50437;51.970;5.904;2023-05-10T05:24:34;13.20;99.90
64143;DHT22;50437;51.970;5.904;2023-05-10T05:27:04;13.10;99.90
64143;DHT22;50437;51.970;5.904;2023-05-10T05:29:32;13.20;99.90
64143;DHT22;50437;51.970;5.904;2023-05-10T05:32:02;13.10;99.90
64143;DHT22;50437;51.970;5.904;2023-05-10T05:34:30;13.20;99.90
64143;DHT22;50437;51.970;5.904;2023-05-10T05:37:05;13.20;99.90
64143;DHT22;50437;51.970;5.904;2023-05-10T05:39:32;13.20;99.90
64143;DHT22;50437;51.970;5.904;2023-05-10T05:42:04;13.30;99.90
64143;DHT22;50437;51.970;5.904;2023-05-10T05:44:33;13.40;99.90
64143;DHT22;50437;51.970;5.904;2023-05-10T05:47:00;13.40;99.90
64143;DHT22;50437;51.970;5.904;2023-05-10T05:49:31;13.40;99.90
64143;DHT22;50437;51.970;5.904;2023-05-10T05:52:03;13.50;99.90
64143;DHT22;50437;51.970;5.904;2023-05-10T05:54:33;13.60;99.90
64143;DHT22;50437;51.970;5.904;2023-05-10T05:57:01;13.60;99.90
64143;DHT22;50437;51.970;5.904;2023-05-10T05:59:27;13.70;99.90
64143;DHT22;50437;51.970;5.904;2023-05-10T06:01:54;13.70;99.90
64143;DHT22;50437;51.970;5.904;2023-05-10T06:04:22;13.50;99.90
64143;DHT22;50437;51.970;5.904;2023-05-10T06:06:48;13.40;99.90
64143;DHT22;50437;51.970;5.904;2023-05-10T06:09:19;13.40;99.90
64143;DHT22;50437;51.970;5.904;2023-05-10T06:11:47;13.50;99.90
64143;DHT22;50437;51.970;5.904;2023-05-10T06:14:13;13.50;99.90
64143;DHT22;50437;51.970;5.904;2023-05-10T06:16:41;13.40;99.90
64143;DHT22;50437;51.970;5.904;2023-05-10T06:19:07;13.50;99.90
64143;DHT22;50437;51.970;5.904;2023-05-10T06:21:34;13.60;99.90
64143;DHT22;50437;51.970;5.904;2023-05-10T06:24:00;13.40;99.90
64143;DHT22;50437;51.970;5.904;2023-05-10T06:26:31;13.40;99.90
64143;DHT22;50437;51.970;5.904;2023-05-10T06:28:57;13.30;99.90
64143;DHT22;50437;51.970;5.904;2023-05-10T06:31:26;13.30;99.90
64143;DHT22;50437;51.970;5.904;2023-05-10T06:33:52;13.20;99.90
64143;DHT22;50437;51.970;5.904;2023-05-10T06:36:18;13.20;99.90
64143;DHT22;50437;51.970;5.904;2023-05-10T06:38:46;13.20;99.90
64143;DHT22;50437;51.970;5.904;2023-05-10T06:41:14;13.30;99.90
64143;DHT22;50437;51.970;5.904;2023-05-10T06:43:42;13.20;99.90
64143;DHT22;50437;51.970;5.904;2023-05-10T06:46:09;13.30;99.90
64143;DHT22;50437;51.970;5.904;2023-05-10T06:48:35;13.30;99.90
64143;DHT22;50437;51.970;5.904;2023-05-10T06:51:01;13.30;99.90
64143;DHT22;50437;51.970;5.904;2023-05-10T06:53:28;13.40;99.90
64143;DHT22;50437;51.970;5.904;2023-05-10T06:55:54;13.50;99.90
64143;DHT22;50437;51.970;5.904;2023-05-10T06:58:23;13.50;99.90
64143;DHT22;50437;51.970;5.904;2023-05-10T07:00:52;13.40;99.90
64143;DHT22;50437;51.970;5.904;2023-05-10T07:03:18;13.40;99.90
64143;DHT22;50437;51.970;5.904;2023-05-10T07:05:44;13.50;99.90
64143;DHT22;50437;51.970;5.904;2023-05-10T07:08:10;13.40;99.90
64143;DHT22;50437;51.970;5.904;2023-05-10T07:10:38;13.50;99.90
64143;DHT22;50437;51.970;5.904;2023-05-10T07:13:04;13.60;99.90
64143;DHT22;50437;51.970;5.904;2023-05-10T07:15:31;13.60;99.90
64143;DHT22;50437;51.970;5.904;2023-05-10T07:17:58;13.60;99.90
64143;DHT22;50437;51.970;5.904;2023-05-10T07:20:24;13.60;99.90
64143;DHT22;50437;51.970;5.904;2023-05-10T07:22:50;13.70;99.90
64143;DHT22;50437;51.970;5.904;2023-05-10T07:25:35;13.70;99.90
64143;DHT22;50437;51.970;5.904;2023-05-10T07:28:01;13.70;99.90
64143;DHT22;50437;51.970;5.904;2023-05-10T07:30:27;13.50;99.90
64143;DHT22;50437;51.970;5.904;2023-05-10T07:32:54;13.60;99.90
64143;DHT22;50437;51.970;5.904;2023-05-10T07:35:21;13.60;99.90
64143;DHT22;50437;51.970;5.904;2023-05-10T07:37:55;13.70;99.90
64143;DHT22;50437;51.970;5.904;2023-05-10T07:40:21;13.80;99.90
64143;DHT22;50437;51.970;5.904;2023-05-10T07:42:52;14.00;99.90
64143;DHT22;50437;51.970;5.904;2023-05-10T07:47:56;14.20;99.90
64143;DHT22;50437;51.970;5.904;2023-05-10T07:50:22;14.20;99.90
64143;DHT22;50437;51.970;5.904;2023-05-10T07:52:49;14.10;99.90
64143;DHT22;50437;51.970;5.904;2023-05-10T07:55:15;14.20;99.90
64143;DHT22;50437;51.970;5.904;2023-05-10T07:57:41;14.40;99.90
64143;DHT22;50437;51.970;5.904;2023-05-10T08:00:08;14.30;99.90
64143;DHT22;50437;51.970;5.904;2023-05-10T08:02:40;14.30;99.90
64143;DHT22;50437;51.970;5.904;2023-05-10T08:05:07;14.20;99.90
64143;DHT22;50437;51.970;5.904;2023-05-10T08:07:33;14.30;99.90
64143;DHT22;50437;51.970;5.904;2023-05-10T08:10:00;14.50;99.90
64143;DHT22;50437;51.970;5.904;2023-05-10T08:12:26;14.90;99.90
64143;DHT22;50437;51.970;5.904;2023-05-10T08:14:52;15.50;99.90
64143;DHT22;50437;51.970;5.904;2023-05-10T08:17:18;15.70;99.90
64143;DHT22;50437;51.970;5.904;2023-05-10T08:19:44;15.70;99.90
64143;DHT22;50437;51.970;5.904;2023-05-10T08:22:10;15.50;99.90
64143;DHT22;50437;51.970;5.904;2023-05-10T08:24:36;15.10;99.90
64143;DHT22;50437;51.970;5.904;2023-05-10T08:27:08;15.10;99.90
64143;DHT22;50437;51.970;5.904;2023-05-10T08:29:34;15.00;99.90
64143;DHT22;50437;51.970;5.904;2023-05-10T08:32:02;15.50;99.90
64143;DHT22;50437;51.970;5.904;2023-05-10T08:34:33;16.20;99.90
64143;DHT22;50437;51.970;5.904;2023-05-10T08:37:14;16.70;99.90
64143;DHT22;50437;51.970;5.904;2023-05-10T08:39:52;17.00;99.90
64143;DHT22;50437;51.970;5.904;2023-05-10T08:42:21;16.60;99.90
64143;DHT22;50437;51.970;5.904;2023-05-10T08:44:48;15.30;99.90
64143;DHT22;50437;51.970;5.904;2023-05-10T08:47:15;15.00;99.90
64143;DHT22;50437;51.970;5.904;2023-05-10T08:49:44;14.60;99.90
64143;DHT22;50437;51.970;5.904;2023-05-10T08:52:13;14.40;99.90
64143;DHT22;50437;51.970;5.904;2023-05-10T08:54:42;14.40;99.90
64143;DHT22;50437;51.970;5.904;2023-05-10T08:57:10;14.60;99.90
64143;DHT22;50437;51.970;5.904;2023-05-10T08:59:36;14.60;99.90
64143;DHT22;50437;51.970;5.904;2023-05-10T09:02:05;14.70;99.90
64143;DHT22;50437;51.970;5.904;2023-05-10T09:04:31;14.70;99.90
64143;DHT22;50437;51.970;5.904;2023-05-10T09:06:58;15.20;99.90
64143;DHT22;50437;51.970;5.904;2023-05-10T09:09:24;14.80;99.90
64143;DHT22;50437;51.970;5.904;2023-05-10T09:11:51;15.00;99.90
64143;DHT22;50437;51.970;5.904;2023-05-10T09:14:17;15.30;99.90
64143;DHT22;50437;51.970;5.904;2023-05-10T09:16:44;15.40;99.90
64143;DHT22;50437;51.970;5.904;2023-05-10T09:19:12;15.80;99.90
64143;DHT22;50437;51.970;5.904;2023-05-10T09:21:38;15.80;99.90
64143;DHT22;50437;51.970;5.904;2023-05-10T09:24:05;15.60;99.90
64143;DHT22;50437;51.970;5.904;2023-05-10T09:26:32;15.60;99.90
64143;DHT22;50437;51.970;5.904;2023-05-10T09:28:59;15.40;99.90
64143;DHT22;50437;51.970;5.904;2023-05-10T09:31:45;15.50;99.90
64143;DHT22;50437;51.970;5.904;2023-05-10T09:34:16;15.50;99.90
64143;DHT22;50437;51.970;5.904;2023-05-10T09:36:51;15.60;99.90
64143;DHT22;50437;51.970;5.904;2023-05-10T09:39:39;15.70;99.90
64143;DHT22;50437;51.970;5.904;2023-05-10T09:42:34;16.10;99.90
64143;DHT22;50437;51.970;5.904;2023-05-10T09:45:04;16.20;99.90
64143;DHT22;50437;51.970;5.904;2023-05-10T09:47:34;15.80;99.90
64143;DHT22;50437;51.970;5.904;2023-05-10T09:50:02;16.00;99.90
64143;DHT22;50437;51.970;5.904;2023-05-10T09:52:30;15.90;99.90
64143;DHT22;50437;51.970;5.904;2023-05-10T09:54:56;16.40;99.90
64143;DHT22;50437;51.970;5.904;2023-05-10T09:57:27;15.90;99.90
64143;DHT22;50437;51.970;5.904;2023-05-10T10:00:07;16.00;99.90
64143;DHT22;50437;51.970;5.904;2023-05-10T10:02:58;15.60;99.90
64143;DHT22;50437;51.970;5.904;2023-05-10T10:05:32;15.70;99.90
64143;DHT22;50437;51.970;5.904;2023-05-10T10:08:06;15.70;99.90
64143;DHT22;50437;51.970;5.904;2023-05-10T10:10:42;15.50;99.90
64143;DHT22;50437;51.970;5.904;2023-05-10T10:13:16;15.50;99.90
64143;DHT22;50437;51.970;5.904;2023-05-10T10:15:44;15.50;99.90
64143;DHT22;50437;51.970;5.904;2023-05-10T10:18:42;15.70;99.90
64143;DHT22;50437;51.970;5.904;2023-05-10T10:21:14;15.90;99.90
64143;DHT22;50437;51.970;5.904;2023-05-10T10:23:45;15.70;99.90
64143;DHT22;50437;51.970;5.904;2023-05-10T10:26:12;16.00;99.90
64143;DHT22;50437;51.970;5.904;2023-05-10T10:35:07;16.00;99.90
64143;DHT22;50437;51.970;5.904;2023-05-10T10:37:42;16.00;99.90
64143;DHT22;50437;51.970;5.904;2023-05-10T10:40:25;16.00;99.90
64143;DHT22;50437;51.970;5.904;2023-05-10T10:43:25;16.10;99.90
64143;DHT22;50437;51.970;5.904;2023-05-10T10:51:06;16.50;99.90
64143;DHT22;50437;51.970;5.904;2023-05-10T10:53:33;16.50;99.90
64143;DHT22;50437;51.970;5.904;2023-05-10T10:56:07;16.40;99.90
64143;DHT22;50437;51.970;5.904;2023-05-10T10:58:36;16.30;99.90
64143;DHT22;50437;51.970;5.904;2023-05-10T11:01:18;16.40;99.90
64143;DHT22;50437;51.970;5.904;2023-05-10T11:04:16;16.40;99.90
64143;DHT22;50437;51.970;5.904;2023-05-10T11:06:43;16.20;99.90
64143;DHT22;50437;51.970;5.904;2023-05-10T11:09:14;16.20;99.90
64143;DHT22;50437;51.970;5.904;2023-05-10T11:11:53;16.00;99.90
64143;DHT22;50437;51.970;5.904;2023-05-10T11:14:27;16.30;99.90
64143;DHT22;50437;51.970;5.904;2023-05-10T11:16:58;16.80;99.90
64143;DHT22;50437;51.970;5.904;2023-05-10T11:19:31;17.10;99.90
64143;DHT22;50437;51.970;5.904;2023-05-10T11:22:13;17.00;99.90
64143;DHT22;50437;51.970;5.904;2023-05-10T11:24:39;17.00;99.90
64143;DHT22;50437;51.970;5.904;2023-05-10T11:27:07;16.90;99.90
64143;DHT22;50437;51.970;5.904;2023-05-10T11:29:51;17.20;99.90
64143;DHT22;50437;51.970;5.904;2023-05-10T11:32:17;17.30;99.90
64143;DHT22;50437;51.970;5.904;2023-05-10T11:34:49;16.80;99.90
64143;DHT22;50437;51.970;5.904;2023-05-10T11:37:17;17.30;99.90
64143;DHT22;50437;51.970;5.904;2023-05-10T11:39:48;17.70;99.90
64143;DHT22;50437;51.970;5.904;2023-05-10T11:42:14;17.80;99.90
64143;DHT22;50437;51.970;5.904;2023-05-10T11:44:42;17.20;99.90
64143;DHT22;50437;51.970;5.904;2023-05-10T11:47:14;17.40;99.90
64143;DHT22;50437;51.970;5.904;2023-05-10T11:49:45;17.60;99.90
64143;DHT22;50437;51.970;5.904;2023-05-10T11:52:12;18.20;99.90
64143;DHT22;50437;51.970;5.904;2023-05-10T11:55:01;17.50;99.90
64143;DHT22;50437;51.970;5.904;2023-05-10T11:57:42;17.90;99.90
64143;DHT22;50437;51.970;5.904;2023-05-10T12:15:11;18.40;99.90
64143;DHT22;50437;51.970;5.904;2023-05-10T12:18:09;18.20;99.90
64143;DHT22;50437;51.970;5.904;2023-05-10T12:36:02;18.20;99.90
64143;DHT22;50437;51.970;5.904;2023-05-10T12:39:10;18.50;99.90
64143;DHT22;50437;51.970;5.904;2023-05-10T12:48:24;18.20;99.90
64143;DHT22;50437;51.970;5.904;2023-05-10T12:51:40;18.40;99.90
64143;DHT22;50437;51.970;5.904;2023-05-10T12:54:10;18.30;99.90
64143;DHT22;50437;51.970;5.904;2023-05-10T12:56:40;18.50;99.90
64143;DHT22;50437;51.970;5.904;2023-05-10T12:59:10;18.50;99.90
64143;DHT22;50437;51.970;5.904;2023-05-10T13:01:52;18.30;99.90
64143;DHT22;50437;51.970;5.904;2023-05-10T13:05:24;18.60;99.90
64143;DHT22;50437;51.970;5.904;2023-05-10T13:08:09;18.60;99.90
64143;DHT22;50437;51.970;5.904;2023-05-10T13:11:03;18.80;99.90
64143;DHT22;50437;51.970;5.904;2023-05-10T13:13:51;18.60;99.90
64143;DHT22;50437;51.970;5.904;2023-05-10T13:16:23;18.90;99.90
64143;DHT22;50437;51.970;5.904;2023-05-10T13:18:53;18.80;99.90
64143;DHT22;50437;51.970;5.904;2023-05-10T13:22:06;18.50;99.90
64143;DHT22;50437;51.970;5.904;2023-05-10T13:28:43;18.40;99.90
64143;DHT22;50437;51.970;5.904;2023-05-10T13:37:44;17.90;99.90
64143;DHT22;50437;51.970;5.904;2023-05-10T13:40:17;17.80;99.90
64143;DHT22;50437;51.970;5.904;2023-05-10T13:42:44;17.80;99.90
64143;DHT22;50437;51.970;5.904;2023-05-10T13:45:21;17.80;99.90
64143;DHT22;50437;51.970;5.904;2023-05-10T14:09:48;16.80;99.90
64143;DHT22;50437;51.970;5.904;2023-05-10T14:23:00;16.50;99.90
64143;DHT22;50437;51.970;5.904;2023-05-10T14:26:20;16.70;99.90
64143;DHT22;50437;51.970;5.904;2023-05-10T14:35:49;16.70;99.90
64143;DHT22;50437;51.970;5.904;2023-05-10T14:45:04;16.40;99.90
64143;DHT22;50437;51.970;5.904;2023-05-10T14:48:31;16.10;99.90
64143;DHT22;50437;51.970;5.904;2023-05-10T14:52:14;16.20;99.90
64143;DHT22;50437;51.970;5.904;2023-05-10T15:20:24;16.50;99.90
64143;DHT22;50437;51.970;5.904;2023-05-10T16:03:11;16.60;99.90
64143;DHT22;50437;51.970;5.904;2023-05-10T16:38:22;16.80;99.90
64143;DHT22;50437;51.970;5.904;2023-05-10T18:26:20;16.10;99.90
64143;DHT22;50437;51.970;5.904;2023-05-10T18:28:56;16.00;99.90
64143;DHT22;50437;51.970;5.904;2023-05-10T18:32:41;15.90;99.90
64143;DHT22;50437;51.970;5.904;2023-05-10T18:47:22;15.50;99.90
64143;DHT22;50437;51.970;5.904;2023-05-10T18:51:08;15.50;99.90
64143;DHT22;50437;51.970;5.904;2023-05-10T18:54:45;15.50;99.90
64143;DHT22;50437;51.970;5.904;2023-05-10T18:58:17;15.50;99.90
64143;DHT22;50437;51.970;5.904;2023-05-10T19:05:27;15.50;99.90
64143;DHT22;50437;51.970;5.904;2023-05-10T19:07:56;15.50;99.90
64143;DHT22;50437;51.970;5.904;2023-05-10T19:24:35;15.30;99.90
64143;DHT22;50437;51.970;5.904;2023-05-10T20:20:04;14.60;99.90
64143;DHT22;50437;51.970;5.904;2023-05-10T20:30:42;14.30;99.90
64143;DHT22;50437;51.970;5.904;2023-05-10T20:40:40;14.40;99.90
64143;DHT22;50437;51.970;5.904;2023-05-10T20:43:56;14.50;99.90
64143;DHT22;50437;51.970;5.904;2023-05-10T20:47:05;14.40;99.90
64143;DHT22;50437;51.970;5.904;2023-05-10T20:50:05;14.50;99.90
64143;DHT22;50437;51.970;5.904;2023-05-10T21:10:14;14.40;99.90
64143;DHT22;50437;51.970;5.904;2023-05-10T21:16:05;14.40;99.90
64143;DHT22;50437;51.970;5.904;2023-05-10T21:18:31;14.30;99.90
64143;DHT22;50437;51.970;5.904;2023-05-10T21:20:58;14.40;99.90
64143;DHT22;50437;51.970;5.904;2023-05-10T21:23:26;14.30;99.90
64143;DHT22;50437;51.970;5.904;2023-05-10T21:26:03;14.20;99.90
64143;DHT22;50437;51.970;5.904;2023-05-10T21:28:43;14.20;99.90
64143;DHT22;50437;51.970;5.904;2023-05-10T21:31:13;14.20;99.90
64143;DHT22;50437;51.970;5.904;2023-05-10T21:33:56;14.20;99.90
64143;DHT22;50437;51.970;5.904;2023-05-10T21:36:31;14.20;99.90
64143;DHT22;50437;51.970;5.904;2023-05-10T21:40:04;14.20;99.90
64143;DHT22;50437;51.970;5.904;2023-05-10T21:42:43;14.20;99.90
64143;DHT22;50437;51.970;5.904;2023-05-10T21:45:21;14.20;99.90
64143;DHT22;50437;51.970;5.904;2023-05-10T21:48:02;14.30;99.90
64143;DHT22;50437;51.970;5.904;2023-05-10T21:50:30;14.20;99.90
64143;DHT22;50437;51.970;5.904;2023-05-10T21:52:59;14.10;99.90
64143;DHT22;50437;51.970;5.904;2023-05-10T21:55:35;14.30;99.90
64143;DHT22;50437;51.970;5.904;2023-05-10T21:58:16;14.20;99.90
64143;DHT22;50437;51.970;5.904;2023-05-10T22:01:22;14.20;99.90
64143;DHT22;50437;51.970;5.904;2023-05-10T22:07:37;14.10;99.90
64143;DHT22;50437;51.970;5.904;2023-05-10T22:10:15;13.90;99.90
64143;DHT22;50437;51.970;5.904;2023-05-10T22:13:15;13.90;99.90
64143;DHT22;50437;51.970;5.904;2023-05-10T22:15:54;13.80;99.90
64143;DHT22;50437;51.970;5.904;2023-05-10T22:18:22;13.80;99.90
64143;DHT22;50437;51.970;5.904;2023-05-10T22:20:54;13.80;99.90
64143;DHT22;50437;51.970;5.904;2023-05-10T22:23:23;13.80;99.90
64143;DHT22;50437;51.970;5.904;2023-05-10T22:26:04;13.80;99.90
64143;DHT22;50437;51.970;5.904;2023-05-10T22:28:34;13.80;99.90
64143;DHT22;50437;51.970;5.904;2023-05-10T22:31:35;14.00;99.90
64143;DHT22;50437;51.970;5.904;2023-05-10T22:34:33;14.00;99.90
64143;DHT22;50437;51.970;5.904;2023-05-10T22:37:23;14.00;99.90
64143;DHT22;50437;51.970;5.904;2023-05-10T22:40:40;14.00;99.90
64143;DHT22;50437;51.970;5.904;2023-05-10T22:43:08;14.10;99.90
64143;DHT22;50437;51.970;5.904;2023-05-10T22:46:00;14.00;99.90
64143;DHT22;50437;51.970;5.904;2023-05-10T22:48:28;14.00;99.90
64143;DHT22;50437;51.970;5.904;2023-05-10T22:50:55;14.10;99.90
64143;DHT22;50437;51.970;5.904;2023-05-10T22:53:40;14.10;99.90
64143;DHT22;50437;51.970;5.904;2023-05-10T22:56:09;14.10;99.90
64143;DHT22;50437;51.970;5.904;2023-05-10T22:58:45;14.10;99.90
64143;DHT22;50437;51.970;5.904;2023-05-10T23:01:15;14.20;99.90
64143;DHT22;50437;51.970;5.904;2023-05-10T23:03:43;14.30;99.90
64143;DHT22;50437;51.970;5.904;2023-05-10T23:08:47;14.30;99.90
64143;DHT22;50437;51.970;5.904;2023-05-10T23:11:26;14.20;99.90
64143;DHT22;50437;51.970;5.904;2023-05-10T23:14:24;14.20;99.90
64143;DHT22;50437;51.970;5.904;2023-05-10T23:16:53;14.10;99.90
64143;DHT22;50437;51.970;5.904;2023-05-10T23:19:21;14.10;99.90
64143;DHT22;50437;51.970;5.904;2023-05-10T23:21:51;14.00;99.90
64143;DHT22;50437;51.970;5.904;2023-05-10T23:24:19;14.10;99.90
64143;DHT22;50437;51.970;5.904;2023-05-10T23:30:08;14.10;99.90
64143;DHT22;50437;51.970;5.904;2023-05-10T23:33:02;14.10;99.90
64143;DHT22;50437;51.970;5.904;2023-05-10T23:35:30;14.10;99.90
64143;DHT22;50437;51.970;5.904;2023-05-10T23:38:29;14.00;99.90
64143;DHT22;50437;51.970;5.904;2023-05-10T23:41:04;14.10;99.90
64143;DHT22;50437;51.970;5.904;2023-05-10T23:43:44;14.10;99.90
64143;DHT22;50437;51.970;5.904;2023-05-10T23:46:59;14.10;99.90